sensor_id;sensor_type;location;lat;lon;timestamp;P1;durP1;ratioP1;P2;durP2;ratioP2
5117;SDS011;2578;51.622;7.046;2023-07-31T00:01:04;14.10;;;13.20;;
5117;SDS011;2578;51.622;7.046;2023-07-31T00:03:29;14.33;;;13.33;;
5117;SDS011;2578;51.622;7.046;2023-07-31T00:05:55;14.03;;;13.13;;
5117;SDS011;2578;51.622;7.046;2023-07-31T00:08:21;14.53;;;13.50;;
5117;SDS011;2578;51.622;7.046;2023-07-31T00:10:47;14.50;;;13.50;;
5117;SDS011;2578;51.622;7.046;2023-07-31T00:13:15;17.43;;;16.23;;
5117;SDS011;2578;51.622;7.046;2023-07-31T00:15:41;14.30;;;13.30;;
5117;SDS011;2578;51.622;7.046;2023-07-31T00:18:07;13.93;;;13.03;;
5117;SDS011;2578;51.622;7.046;2023-07-31T00:20:32;14.60;;;13.60;;
5117;SDS011;2578;51.622;7.046;2023-07-31T00:22:58;16.57;;;14.97;;
5117;SDS011;2578;51.622;7.046;2023-07-31T00:25:23;14.17;;;13.13;;
5117;SDS011;2578;51.622;7.046;2023-07-31T00:27:49;14.00;;;13.10;;
5117;SDS011;2578;51.622;7.046;2023-07-31T00:30:15;15.63;;;14.37;;
5117;SDS011;2578;51.622;7.046;2023-07-31T00:32:41;17.07;;;15.47;;
5117;SDS011;2578;51.622;7.046;2023-07-31T00:35:07;17.00;;;15.40;;
5117;SDS011;2578;51.622;7.046;2023-07-31T00:37:32;15.33;;;14.23;;
5117;SDS011;2578;51.622;7.046;2023-07-31T00:39:58;15.03;;;13.83;;
5117;SDS011;2578;51.622;7.046;2023-07-31T00:42:24;16.37;;;15.00;;
5117;SDS011;2578;51.622;7.046;2023-07-31T00:44:50;16.23;;;14.83;;
5117;SDS011;2578;51.622;7.046;2023-07-31T00:47:15;14.63;;;13.53;;
5117;SDS011;2578;51.622;7.046;2023-07-31T00:49:41;15.23;;;13.83;;
5117;SDS011;2578;51.622;7.046;2023-07-31T00:52:07;16.00;;;14.50;;
5117;SDS011;2578;51.622;7.046;2023-07-31T00:54:33;15.63;;;14.33;;
5117;SDS011;2578;51.622;7.046;2023-07-31T00:56:59;19.17;;;17.20;;
5117;SDS011;2578;51.622;7.046;2023-07-31T00:59:25;24.17;;;19.33;;
5117;SDS011;2578;51.622;7.046;2023-07-31T01:01:50;23.47;;;18.10;;
5117;SDS011;2578;51.622;7.046;2023-07-31T01:04:17;14.30;;;13.10;;
5117;SDS011;2578;51.622;7.046;2023-07-31T01:09:29;15.40;;;13.47;;
5117;SDS011;2578;51.622;7.046;2023-07-31T01:12:04;23.17;;;15.10;;
5117;SDS011;2578;51.622;7.046;2023-07-31T01:14:32;22.60;;;16.60;;
5117;SDS011;2578;51.622;7.046;2023-07-31T01:16:58;13.93;;;12.70;;
5117;SDS011;2578;51.622;7.046;2023-07-31T01:19:24;13.23;;;12.13;;
5117;SDS011;2578;51.622;7.046;2023-07-31T01:27:33;23.63;;;15.67;;
5117;SDS011;2578;51.622;7.046;2023-07-31T01:30:07;15.40;;;13.93;;
5117;SDS011;2578;51.622;7.046;2023-07-31T01:32:40;20.20;;;16.83;;
5117;SDS011;2578;51.622;7.046;2023-07-31T01:35:07;17.40;;;14.30;;
5117;SDS011;2578;51.622;7.046;2023-07-31T01:37:33;18.60;;;16.90;;
5117;SDS011;2578;51.622;7.046;2023-07-31T01:39:59;23.97;;;17.67;;
5117;SDS011;2578;51.622;7.046;2023-07-31T01:42:25;16.77;;;15.33;;
5117;SDS011;2578;51.622;7.046;2023-07-31T01:44:50;19.23;;;15.00;;
5117;SDS011;2578;51.622;7.046;2023-07-31T01:47:16;18.93;;;16.47;;
5117;SDS011;2578;51.622;7.046;2023-07-31T01:49:42;19.90;;;17.87;;
5117;SDS011;2578;51.622;7.046;2023-07-31T01:52:08;18.17;;;16.57;;
5117;SDS011;2578;51.622;7.046;2023-07-31T01:54:33;21.13;;;19.30;;
5117;SDS011;2578;51.622;7.046;2023-07-31T01:56:59;20.60;;;18.30;;
5117;SDS011;2578;51.622;7.046;2023-07-31T01:59:25;19.50;;;17.53;;
5117;SDS011;2578;51.622;7.046;2023-07-31T02:01:50;20.30;;;18.33;;
5117;SDS011;2578;51.622;7.046;2023-07-31T02:04:16;20.63;;;18.60;;
5117;SDS011;2578;51.622;7.046;2023-07-31T02:06:41;21.07;;;19.03;;
5117;SDS011;2578;51.622;7.046;2023-07-31T02:09:08;17.80;;;16.30;;
5117;SDS011;2578;51.622;7.046;2023-07-31T02:11:33;29.30;;;20.10;;
5117;SDS011;2578;51.622;7.046;2023-07-31T02:13:59;18.30;;;16.90;;
5117;SDS011;2578;51.622;7.046;2023-07-31T02:16:25;18.20;;;16.90;;
5117;SDS011;2578;51.622;7.046;2023-07-31T02:18:50;18.53;;;17.00;;
5117;SDS011;2578;51.622;7.046;2023-07-31T02:21:16;19.07;;;17.30;;
5117;SDS011;2578;51.622;7.046;2023-07-31T02:23:41;19.10;;;17.70;;
5117;SDS011;2578;51.622;7.046;2023-07-31T02:26:07;19.63;;;18.20;;
5117;SDS011;2578;51.622;7.046;2023-07-31T02:28:33;19.47;;;17.70;;
5117;SDS011;2578;51.622;7.046;2023-07-31T02:30:58;21.73;;;19.70;;
5117;SDS011;2578;51.622;7.046;2023-07-31T02:33:24;21.03;;;19.23;;
5117;SDS011;2578;51.622;7.046;2023-07-31T02:35:50;20.43;;;18.67;;
5117;SDS011;2578;51.622;7.046;2023-07-31T02:38:15;18.43;;;17.03;;
5117;SDS011;2578;51.622;7.046;2023-07-31T02:40:41;25.03;;;20.90;;
5117;SDS011;2578;51.622;7.046;2023-07-31T02:43:07;18.17;;;16.83;;
5117;SDS011;2578;51.622;7.046;2023-07-31T02:45:33;22.10;;;19.80;;
5117;SDS011;2578;51.622;7.046;2023-07-31T02:47:58;20.00;;;18.33;;
5117;SDS011;2578;51.622;7.046;2023-07-31T02:50:24;17.40;;;16.20;;
5117;SDS011;2578;51.622;7.046;2023-07-31T02:52:49;17.10;;;15.90;;
5117;SDS011;2578;51.622;7.046;2023-07-31T02:55:15;19.70;;;18.00;;
5117;SDS011;2578;51.622;7.046;2023-07-31T02:57:41;21.70;;;19.63;;
5117;SDS011;2578;51.622;7.046;2023-07-31T03:00:06;19.67;;;18.10;;
5117;SDS011;2578;51.622;7.046;2023-07-31T03:02:32;18.90;;;17.43;;
5117;SDS011;2578;51.622;7.046;2023-07-31T03:04:58;18.10;;;16.87;;
5117;SDS011;2578;51.622;7.046;2023-07-31T03:07:24;18.97;;;17.47;;
5117;SDS011;2578;51.622;7.046;2023-07-31T03:09:50;18.70;;;17.20;;
5117;SDS011;2578;51.622;7.046;2023-07-31T03:12:15;19.40;;;18.00;;
5117;SDS011;2578;51.622;7.046;2023-07-31T03:14:41;18.30;;;17.10;;
5117;SDS011;2578;51.622;7.046;2023-07-31T03:17:06;19.20;;;17.90;;
5117;SDS011;2578;51.622;7.046;2023-07-31T03:19:32;19.40;;;17.70;;
5117;SDS011;2578;51.622;7.046;2023-07-31T03:21:58;21.10;;;19.10;;
5117;SDS011;2578;51.622;7.046;2023-07-31T03:24:25;23.10;;;18.07;;
5117;SDS011;2578;51.622;7.046;2023-07-31T03:26:51;71.70;;;20.40;;
5117;SDS011;2578;51.622;7.046;2023-07-31T03:29:16;19.90;;;18.40;;
5117;SDS011;2578;51.622;7.046;2023-07-31T03:31:42;18.67;;;17.30;;
5117;SDS011;2578;51.622;7.046;2023-07-31T03:34:08;18.27;;;16.97;;
5117;SDS011;2578;51.622;7.046;2023-07-31T03:36:33;20.27;;;18.33;;
5117;SDS011;2578;51.622;7.046;2023-07-31T03:38:59;19.90;;;18.07;;
5117;SDS011;2578;51.622;7.046;2023-07-31T03:41:24;18.60;;;17.30;;
5117;SDS011;2578;51.622;7.046;2023-07-31T03:43:50;18.30;;;16.90;;
5117;SDS011;2578;51.622;7.046;2023-07-31T03:46:23;19.83;;;18.13;;
5117;SDS011;2578;51.622;7.046;2023-07-31T03:48:49;17.37;;;16.20;;
5117;SDS011;2578;51.622;7.046;2023-07-31T03:51:16;20.77;;;19.13;;
5117;SDS011;2578;51.622;7.046;2023-07-31T03:53:44;18.87;;;17.57;;
5117;SDS011;2578;51.622;7.046;2023-07-31T03:56:10;21.40;;;19.00;;
5117;SDS011;2578;51.622;7.046;2023-07-31T03:58:36;19.03;;;17.63;;
5117;SDS011;2578;51.622;7.046;2023-07-31T04:01:02;21.37;;;19.47;;
5117;SDS011;2578;51.622;7.046;2023-07-31T04:03:28;18.23;;;16.93;;
5117;SDS011;2578;51.622;7.046;2023-07-31T04:05:54;19.50;;;18.10;;
5117;SDS011;2578;51.622;7.046;2023-07-31T04:08:21;18.97;;;17.50;;
5117;SDS011;2578;51.622;7.046;2023-07-31T04:10:47;18.50;;;17.30;;
5117;SDS011;2578;51.622;7.046;2023-07-31T04:13:12;20.93;;;18.53;;
5117;SDS011;2578;51.622;7.046;2023-07-31T04:15:38;18.23;;;17.03;;
5117;SDS011;2578;51.622;7.046;2023-07-31T04:18:04;20.43;;;18.83;;
5117;SDS011;2578;51.622;7.046;2023-07-31T04:20:30;18.30;;;17.00;;
5117;SDS011;2578;51.622;7.046;2023-07-31T04:22:56;26.07;;;21.07;;
5117;SDS011;2578;51.622;7.046;2023-07-31T04:25:21;42.40;;;19.27;;
5117;SDS011;2578;51.622;7.046;2023-07-31T04:27:47;18.57;;;17.33;;
5117;SDS011;2578;51.622;7.046;2023-07-31T04:30:13;20.33;;;18.83;;
5117;SDS011;2578;51.622;7.046;2023-07-31T04:32:38;19.60;;;17.80;;
5117;SDS011;2578;51.622;7.046;2023-07-31T04:35:04;20.07;;;18.67;;
5117;SDS011;2578;51.622;7.046;2023-07-31T04:37:30;20.43;;;18.60;;
5117;SDS011;2578;51.622;7.046;2023-07-31T04:39:56;19.63;;;18.00;;
5117;SDS011;2578;51.622;7.046;2023-07-31T04:42:21;19.70;;;18.10;;
5117;SDS011;2578;51.622;7.046;2023-07-31T04:44:53;17.90;;;16.70;;
5117;SDS011;2578;51.622;7.046;2023-07-31T04:47:33;20.07;;;18.37;;
5117;SDS011;2578;51.622;7.046;2023-07-31T04:50:16;18.20;;;17.10;;
5117;SDS011;2578;51.622;7.046;2023-07-31T04:53:19;20.10;;;18.50;;
5117;SDS011;2578;51.622;7.046;2023-07-31T04:55:59;21.03;;;19.30;;
5117;SDS011;2578;51.622;7.046;2023-07-31T04:58:53;20.73;;;18.73;;
5117;SDS011;2578;51.622;7.046;2023-07-31T05:01:41;20.30;;;18.80;;
5117;SDS011;2578;51.622;7.046;2023-07-31T05:04:08;18.70;;;17.50;;
5117;SDS011;2578;51.622;7.046;2023-07-31T05:06:46;20.47;;;19.07;;
5117;SDS011;2578;51.622;7.046;2023-07-31T05:09:41;21.00;;;19.13;;
5117;SDS011;2578;51.622;7.046;2023-07-31T05:12:09;20.33;;;18.77;;
5117;SDS011;2578;51.622;7.046;2023-07-31T05:14:44;19.53;;;18.13;;
5117;SDS011;2578;51.622;7.046;2023-07-31T05:17:19;18.20;;;17.00;;
5117;SDS011;2578;51.622;7.046;2023-07-31T05:19:57;19.13;;;17.90;;
5117;SDS011;2578;51.622;7.046;2023-07-31T05:22:35;19.47;;;18.10;;
5117;SDS011;2578;51.622;7.046;2023-07-31T05:25:17;18.07;;;16.93;;
5117;SDS011;2578;51.622;7.046;2023-07-31T05:27:58;18.37;;;17.20;;
5117;SDS011;2578;51.622;7.046;2023-07-31T05:30:31;20.20;;;18.70;;
5117;SDS011;2578;51.622;7.046;2023-07-31T05:33:06;18.50;;;17.30;;
5117;SDS011;2578;51.622;7.046;2023-07-31T05:35:36;21.30;;;19.70;;
5117;SDS011;2578;51.622;7.046;2023-07-31T05:38:04;19.83;;;18.47;;
5117;SDS011;2578;51.622;7.046;2023-07-31T05:40:32;18.70;;;17.53;;
5117;SDS011;2578;51.622;7.046;2023-07-31T05:43:05;19.50;;;18.20;;
5117;SDS011;2578;51.622;7.046;2023-07-31T05:45:42;19.33;;;18.03;;
5117;SDS011;2578;51.622;7.046;2023-07-31T05:48:14;20.67;;;18.57;;
5117;SDS011;2578;51.622;7.046;2023-07-31T05:50:47;17.80;;;16.40;;
5117;SDS011;2578;51.622;7.046;2023-07-31T05:53:26;18.17;;;16.93;;
5117;SDS011;2578;51.622;7.046;2023-07-31T05:55:52;17.00;;;15.90;;
5117;SDS011;2578;51.622;7.046;2023-07-31T06:01:19;18.00;;;16.80;;
5117;SDS011;2578;51.622;7.046;2023-07-31T06:04:07;17.60;;;16.50;;
5117;SDS011;2578;51.622;7.046;2023-07-31T06:07:20;17.33;;;16.17;;
5117;SDS011;2578;51.622;7.046;2023-07-31T06:10:08;16.80;;;15.70;;
5117;SDS011;2578;51.622;7.046;2023-07-31T06:12:55;17.40;;;16.30;;
5117;SDS011;2578;51.622;7.046;2023-07-31T06:15:27;17.73;;;16.23;;
5117;SDS011;2578;51.622;7.046;2023-07-31T06:21:18;16.50;;;15.40;;
5117;SDS011;2578;51.622;7.046;2023-07-31T06:24:09;17.53;;;16.33;;
5117;SDS011;2578;51.622;7.046;2023-07-31T06:26:45;17.87;;;16.47;;
5117;SDS011;2578;51.622;7.046;2023-07-31T06:29:47;19.57;;;17.93;;
5117;SDS011;2578;51.622;7.046;2023-07-31T06:32:35;17.50;;;16.30;;
5117;SDS011;2578;51.622;7.046;2023-07-31T06:35:34;19.47;;;18.23;;
5117;SDS011;2578;51.622;7.046;2023-07-31T06:38:18;17.73;;;16.43;;
5117;SDS011;2578;51.622;7.046;2023-07-31T06:41:14;16.30;;;15.20;;
5117;SDS011;2578;51.622;7.046;2023-07-31T06:44:13;16.00;;;15.00;;
5117;SDS011;2578;51.622;7.046;2023-07-31T06:46:51;15.60;;;14.60;;
5117;SDS011;2578;51.622;7.046;2023-07-31T06:49:32;15.40;;;14.40;;
5117;SDS011;2578;51.622;7.046;2023-07-31T06:52:07;16.37;;;15.27;;
5117;SDS011;2578;51.622;7.046;2023-07-31T06:57:45;15.60;;;14.60;;
5117;SDS011;2578;51.622;7.046;2023-07-31T07:00:41;15.30;;;14.30;;
5117;SDS011;2578;51.622;7.046;2023-07-31T07:03:45;16.23;;;14.93;;
5117;SDS011;2578;51.622;7.046;2023-07-31T07:06:33;15.30;;;14.30;;
5117;SDS011;2578;51.622;7.046;2023-07-31T07:09:27;15.80;;;14.70;;
5117;SDS011;2578;51.622;7.046;2023-07-31T07:12:33;15.97;;;14.77;;
5117;SDS011;2578;51.622;7.046;2023-07-31T07:15:25;18.40;;;15.90;;
5117;SDS011;2578;51.622;7.046;2023-07-31T07:17:51;15.70;;;14.63;;
5117;SDS011;2578;51.622;7.046;2023-07-31T07:23:24;16.03;;;14.73;;
5117;SDS011;2578;51.622;7.046;2023-07-31T07:28:48;15.40;;;14.40;;
5117;SDS011;2578;51.622;7.046;2023-07-31T07:31:44;16.73;;;15.53;;
5117;SDS011;2578;51.622;7.046;2023-07-31T07:37:49;15.97;;;14.97;;
5117;SDS011;2578;51.622;7.046;2023-07-31T07:40:21;15.10;;;14.10;;
5117;SDS011;2578;51.622;7.046;2023-07-31T07:42:54;15.97;;;14.90;;
5117;SDS011;2578;51.622;7.046;2023-07-31T07:45:29;15.30;;;14.10;;
5117;SDS011;2578;51.622;7.046;2023-07-31T07:48:15;15.60;;;14.50;;
5117;SDS011;2578;51.622;7.046;2023-07-31T07:50:58;16.87;;;15.50;;
5117;SDS011;2578;51.622;7.046;2023-07-31T07:53:30;16.03;;;14.93;;
5117;SDS011;2578;51.622;7.046;2023-07-31T07:55:58;15.00;;;14.00;;
5117;SDS011;2578;51.622;7.046;2023-07-31T07:58:51;15.80;;;14.70;;
5117;SDS011;2578;51.622;7.046;2023-07-31T08:01:30;15.40;;;14.40;;
5117;SDS011;2578;51.622;7.046;2023-07-31T08:03:59;15.43;;;14.33;;
5117;SDS011;2578;51.622;7.046;2023-07-31T08:06:26;15.33;;;14.23;;
5117;SDS011;2578;51.622;7.046;2023-07-31T08:09:19;17.03;;;15.67;;
5117;SDS011;2578;51.622;7.046;2023-07-31T08:14:37;16.90;;;15.70;;
5117;SDS011;2578;51.622;7.046;2023-07-31T08:20:12;16.00;;;14.90;;
5117;SDS011;2578;51.622;7.046;2023-07-31T08:22:44;32.33;;;18.50;;
5117;SDS011;2578;51.622;7.046;2023-07-31T08:25:44;17.10;;;16.00;;
5117;SDS011;2578;51.622;7.046;2023-07-31T08:28:29;17.10;;;15.90;;
5117;SDS011;2578;51.622;7.046;2023-07-31T08:36:41;16.10;;;15.00;;
5117;SDS011;2578;51.622;7.046;2023-07-31T08:39:17;16.40;;;15.20;;
5117;SDS011;2578;51.622;7.046;2023-07-31T08:45:16;17.33;;;16.03;;
5117;SDS011;2578;51.622;7.046;2023-07-31T08:50:45;18.07;;;16.67;;
5117;SDS011;2578;51.622;7.046;2023-07-31T08:53:20;17.20;;;16.00;;
5117;SDS011;2578;51.622;7.046;2023-07-31T08:55:56;17.50;;;16.20;;
5117;SDS011;2578;51.622;7.046;2023-07-31T08:58:27;18.30;;;16.87;;
5117;SDS011;2578;51.622;7.046;2023-07-31T09:01:06;17.20;;;16.00;;
5117;SDS011;2578;51.622;7.046;2023-07-31T09:03:55;19.73;;;18.13;;
5117;SDS011;2578;51.622;7.046;2023-07-31T09:06:36;16.77;;;15.67;;
5117;SDS011;2578;51.622;7.046;2023-07-31T09:09:09;17.80;;;16.30;;
5117;SDS011;2578;51.622;7.046;2023-07-31T09:11:44;17.13;;;15.83;;
5117;SDS011;2578;51.622;7.046;2023-07-31T09:14:30;17.23;;;16.03;;
5117;SDS011;2578;51.622;7.046;2023-07-31T09:16:58;15.10;;;14.10;;
5117;SDS011;2578;51.622;7.046;2023-07-31T09:19:47;18.00;;;16.50;;
5117;SDS011;2578;51.622;7.046;2023-07-31T09:22:34;17.53;;;16.13;;
5117;SDS011;2578;51.622;7.046;2023-07-31T09:31:17;17.73;;;16.40;;
5117;SDS011;2578;51.622;7.046;2023-07-31T09:34:11;17.90;;;16.50;;
5117;SDS011;2578;51.622;7.046;2023-07-31T09:36:50;18.17;;;16.87;;
5117;SDS011;2578;51.622;7.046;2023-07-31T09:39:27;17.50;;;16.30;;
5117;SDS011;2578;51.622;7.046;2023-07-31T09:42:00;17.67;;;16.17;;
5117;SDS011;2578;51.622;7.046;2023-07-31T09:44:41;17.83;;;16.50;;
5117;SDS011;2578;51.622;7.046;2023-07-31T09:50:15;18.77;;;17.47;;
5117;SDS011;2578;51.622;7.046;2023-07-31T09:52:42;19.10;;;17.70;;
5117;SDS011;2578;51.622;7.046;2023-07-31T09:55:11;18.00;;;16.70;;
5117;SDS011;2578;51.622;7.046;2023-07-31T09:57:41;19.37;;;17.67;;
5117;SDS011;2578;51.622;7.046;2023-07-31T10:00:18;19.27;;;17.63;;
5117;SDS011;2578;51.622;7.046;2023-07-31T10:02:58;17.83;;;16.53;;
5117;SDS011;2578;51.622;7.046;2023-07-31T10:06:06;20.90;;;19.20;;
5117;SDS011;2578;51.622;7.046;2023-07-31T10:08:57;19.37;;;17.70;;
5117;SDS011;2578;51.622;7.046;2023-07-31T10:11:59;18.90;;;17.23;;
5117;SDS011;2578;51.622;7.046;2023-07-31T10:14:45;18.53;;;17.07;;
5117;SDS011;2578;51.622;7.046;2023-07-31T10:17:17;18.73;;;17.13;;
5117;SDS011;2578;51.622;7.046;2023-07-31T10:19:54;23.50;;;18.93;;
5117;SDS011;2578;51.622;7.046;2023-07-31T10:22:30;18.47;;;17.17;;
5117;SDS011;2578;51.622;7.046;2023-07-31T10:25:22;17.60;;;16.40;;
5117;SDS011;2578;51.622;7.046;2023-07-31T10:28:00;21.23;;;19.60;;
5117;SDS011;2578;51.622;7.046;2023-07-31T10:30:32;18.77;;;17.47;;
5117;SDS011;2578;51.622;7.046;2023-07-31T10:33:43;22.53;;;17.83;;
5117;SDS011;2578;51.622;7.046;2023-07-31T10:38:59;18.27;;;16.97;;
5117;SDS011;2578;51.622;7.046;2023-07-31T10:41:58;20.20;;;18.50;;
5117;SDS011;2578;51.622;7.046;2023-07-31T10:44:46;16.80;;;15.60;;
5117;SDS011;2578;51.622;7.046;2023-07-31T10:47:52;19.58;;;18.23;;
5117;SDS011;2578;51.622;7.046;2023-07-31T10:50:55;16.63;;;15.43;;
5117;SDS011;2578;51.622;7.046;2023-07-31T10:56:19;22.33;;;20.30;;
5117;SDS011;2578;51.622;7.046;2023-07-31T10:59:13;17.07;;;15.87;;
5117;SDS011;2578;51.622;7.046;2023-07-31T11:01:52;17.73;;;16.27;;
5117;SDS011;2578;51.622;7.046;2023-07-31T11:04:26;17.23;;;15.83;;
5117;SDS011;2578;51.622;7.046;2023-07-31T11:06:59;20.00;;;18.30;;
5117;SDS011;2578;51.622;7.046;2023-07-31T11:09:28;17.40;;;16.20;;
5117;SDS011;2578;51.622;7.046;2023-07-31T11:11:56;17.30;;;16.10;;
5117;SDS011;2578;51.622;7.046;2023-07-31T11:14:23;21.30;;;19.33;;
5117;SDS011;2578;51.622;7.046;2023-07-31T11:16:49;20.40;;;18.90;;
5117;SDS011;2578;51.622;7.046;2023-07-31T11:19:21;21.53;;;19.83;;
5117;SDS011;2578;51.622;7.046;2023-07-31T11:21:48;22.40;;;20.60;;
5117;SDS011;2578;51.622;7.046;2023-07-31T11:24:14;20.33;;;18.70;;
5117;SDS011;2578;51.622;7.046;2023-07-31T11:26:47;23.90;;;21.90;;
5117;SDS011;2578;51.622;7.046;2023-07-31T11:29:17;22.40;;;20.23;;
5117;SDS011;2578;51.622;7.046;2023-07-31T11:31:44;21.20;;;19.50;;
5117;SDS011;2578;51.622;7.046;2023-07-31T11:34:10;21.23;;;19.63;;
5117;SDS011;2578;51.622;7.046;2023-07-31T11:36:35;21.20;;;19.60;;
5117;SDS011;2578;51.622;7.046;2023-07-31T11:39:04;20.60;;;19.00;;
5117;SDS011;2578;51.622;7.046;2023-07-31T11:41:31;21.90;;;20.20;;
5117;SDS011;2578;51.622;7.046;2023-07-31T11:44:00;20.43;;;18.93;;
5117;SDS011;2578;51.622;7.046;2023-07-31T11:46:27;20.97;;;19.37;;
5117;SDS011;2578;51.622;7.046;2023-07-31T11:48:58;20.57;;;18.97;;
5117;SDS011;2578;51.622;7.046;2023-07-31T11:51:25;21.70;;;19.73;;
5117;SDS011;2578;51.622;7.046;2023-07-31T11:53:53;20.97;;;19.27;;
5117;SDS011;2578;51.622;7.046;2023-07-31T11:56:21;20.40;;;18.80;;
5117;SDS011;2578;51.622;7.046;2023-07-31T11:58:50;19.80;;;18.30;;
5117;SDS011;2578;51.622;7.046;2023-07-31T12:01:23;20.27;;;18.57;;
5117;SDS011;2578;51.622;7.046;2023-07-31T12:03:50;20.23;;;18.67;;
5117;SDS011;2578;51.622;7.046;2023-07-31T12:06:19;21.13;;;19.47;;
5117;SDS011;2578;51.622;7.046;2023-07-31T12:08:46;20.50;;;18.90;;
5117;SDS011;2578;51.622;7.046;2023-07-31T12:11:12;23.17;;;21.23;;
5117;SDS011;2578;51.622;7.046;2023-07-31T12:13:42;20.00;;;18.50;;
5117;SDS011;2578;51.622;7.046;2023-07-31T12:16:08;20.53;;;18.93;;
5117;SDS011;2578;51.622;7.046;2023-07-31T12:18:37;20.80;;;18.90;;
5117;SDS011;2578;51.622;7.046;2023-07-31T12:21:04;19.90;;;18.30;;
5117;SDS011;2578;51.622;7.046;2023-07-31T12:23:31;22.27;;;20.57;;
5117;SDS011;2578;51.622;7.046;2023-07-31T12:26:02;21.83;;;20.23;;
5117;SDS011;2578;51.622;7.046;2023-07-31T12:28:40;21.33;;;19.50;;
5117;SDS011;2578;51.622;7.046;2023-07-31T12:31:08;20.70;;;19.10;;
5117;SDS011;2578;51.622;7.046;2023-07-31T12:33:35;19.90;;;18.50;;
5117;SDS011;2578;51.622;7.046;2023-07-31T12:36:02;20.77;;;19.10;;
5117;SDS011;2578;51.622;7.046;2023-07-31T12:38:30;20.03;;;18.60;;
5117;SDS011;2578;51.622;7.046;2023-07-31T12:40:55;20.60;;;19.00;;
5117;SDS011;2578;51.622;7.046;2023-07-31T12:43:21;21.47;;;19.67;;
5117;SDS011;2578;51.622;7.046;2023-07-31T12:45:47;20.77;;;19.27;;
5117;SDS011;2578;51.622;7.046;2023-07-31T12:48:12;20.27;;;18.77;;
5117;SDS011;2578;51.622;7.046;2023-07-31T12:50:38;21.00;;;19.40;;
5117;SDS011;2578;51.622;7.046;2023-07-31T12:53:05;22.30;;;20.23;;
5117;SDS011;2578;51.622;7.046;2023-07-31T12:55:31;20.77;;;19.27;;
5117;SDS011;2578;51.622;7.046;2023-07-31T12:57:59;20.90;;;19.10;;
5117;SDS011;2578;51.622;7.046;2023-07-31T13:00:25;19.37;;;17.77;;
5117;SDS011;2578;51.622;7.046;2023-07-31T13:02:51;20.73;;;19.23;;
5117;SDS011;2578;51.622;7.046;2023-07-31T13:05:17;19.30;;;17.90;;
5117;SDS011;2578;51.622;7.046;2023-07-31T13:07:44;19.40;;;18.00;;
5117;SDS011;2578;51.622;7.046;2023-07-31T13:10:10;21.40;;;19.70;;
5117;SDS011;2578;51.622;7.046;2023-07-31T13:12:36;20.67;;;19.07;;
5117;SDS011;2578;51.622;7.046;2023-07-31T13:15:03;20.33;;;18.83;;
5117;SDS011;2578;51.622;7.046;2023-07-31T13:17:32;21.00;;;19.10;;
5117;SDS011;2578;51.622;7.046;2023-07-31T13:19:58;19.80;;;18.40;;
5117;SDS011;2578;51.622;7.046;2023-07-31T13:22:24;19.83;;;18.43;;
5117;SDS011;2578;51.622;7.046;2023-07-31T13:24:50;22.77;;;20.70;;
5117;SDS011;2578;51.622;7.046;2023-07-31T13:27:16;21.13;;;19.43;;
5117;SDS011;2578;51.622;7.046;2023-07-31T13:29:44;20.07;;;18.57;;
5117;SDS011;2578;51.622;7.046;2023-07-31T13:32:10;19.60;;;18.20;;
5117;SDS011;2578;51.622;7.046;2023-07-31T13:34:36;18.80;;;17.40;;
5117;SDS011;2578;51.622;7.046;2023-07-31T13:37:03;19.13;;;17.73;;
5117;SDS011;2578;51.622;7.046;2023-07-31T13:39:30;18.00;;;16.70;;
5117;SDS011;2578;51.622;7.046;2023-07-31T13:41:56;18.43;;;17.13;;
5117;SDS011;2578;51.622;7.046;2023-07-31T13:44:22;18.67;;;17.27;;
5117;SDS011;2578;51.622;7.046;2023-07-31T13:46:47;20.03;;;18.43;;
5117;SDS011;2578;51.622;7.046;2023-07-31T13:49:13;18.27;;;16.97;;
5117;SDS011;2578;51.622;7.046;2023-07-31T13:51:39;18.37;;;17.07;;
5117;SDS011;2578;51.622;7.046;2023-07-31T13:54:05;17.40;;;16.20;;
5117;SDS011;2578;51.622;7.046;2023-07-31T13:56:34;17.70;;;16.47;;
5117;SDS011;2578;51.622;7.046;2023-07-31T13:59:00;19.17;;;17.57;;
5117;SDS011;2578;51.622;7.046;2023-07-31T14:01:26;17.93;;;16.53;;
5117;SDS011;2578;51.622;7.046;2023-07-31T14:03:52;17.83;;;16.57;;
5117;SDS011;2578;51.622;7.046;2023-07-31T14:06:17;18.80;;;17.30;;
5117;SDS011;2578;51.622;7.046;2023-07-31T14:08:44;18.23;;;16.83;;
5117;SDS011;2578;51.622;7.046;2023-07-31T14:11:09;18.37;;;16.90;;
5117;SDS011;2578;51.622;7.046;2023-07-31T14:13:35;17.00;;;15.80;;
5117;SDS011;2578;51.622;7.046;2023-07-31T14:16:00;17.37;;;16.17;;
5117;SDS011;2578;51.622;7.046;2023-07-31T14:18:27;19.40;;;17.90;;
5117;SDS011;2578;51.622;7.046;2023-07-31T14:20:53;22.03;;;17.83;;
5117;SDS011;2578;51.622;7.046;2023-07-31T14:23:19;19.97;;;18.47;;
5117;SDS011;2578;51.622;7.046;2023-07-31T14:25:45;19.40;;;18.00;;
5117;SDS011;2578;51.622;7.046;2023-07-31T14:28:11;19.00;;;17.67;;
5117;SDS011;2578;51.622;7.046;2023-07-31T14:30:36;19.50;;;17.90;;
5117;SDS011;2578;51.622;7.046;2023-07-31T14:33:02;18.70;;;17.40;;
5117;SDS011;2578;51.622;7.046;2023-07-31T14:35:28;18.37;;;17.07;;
5117;SDS011;2578;51.622;7.046;2023-07-31T14:37:57;19.03;;;17.73;;
5117;SDS011;2578;51.622;7.046;2023-07-31T14:40:22;19.37;;;18.07;;
5117;SDS011;2578;51.622;7.046;2023-07-31T14:42:48;19.60;;;18.30;;
5117;SDS011;2578;51.622;7.046;2023-07-31T14:45:13;21.33;;;19.67;;
5117;SDS011;2578;51.622;7.046;2023-07-31T14:47:39;20.70;;;19.30;;
5117;SDS011;2578;51.622;7.046;2023-07-31T14:50:05;20.40;;;19.00;;
5117;SDS011;2578;51.622;7.046;2023-07-31T14:52:31;20.73;;;19.13;;
5117;SDS011;2578;51.622;7.046;2023-07-31T14:54:57;20.47;;;18.90;;
5117;SDS011;2578;51.622;7.046;2023-07-31T14:57:22;20.50;;;19.10;;
5117;SDS011;2578;51.622;7.046;2023-07-31T14:59:48;21.03;;;19.60;;
5117;SDS011;2578;51.622;7.046;2023-07-31T15:02:14;19.50;;;18.20;;
5117;SDS011;2578;51.622;7.046;2023-07-31T15:04:40;19.90;;;18.50;;
5117;SDS011;2578;51.622;7.046;2023-07-31T15:07:06;19.43;;;17.83;;
5117;SDS011;2578;51.622;7.046;2023-07-31T15:09:32;20.73;;;19.23;;
5117;SDS011;2578;51.622;7.046;2023-07-31T15:11:58;20.43;;;18.33;;
5117;SDS011;2578;51.622;7.046;2023-07-31T15:14:24;18.87;;;17.47;;
5117;SDS011;2578;51.622;7.046;2023-07-31T15:16:50;18.60;;;17.30;;
5117;SDS011;2578;51.622;7.046;2023-07-31T15:19:16;17.30;;;16.20;;
5117;SDS011;2578;51.622;7.046;2023-07-31T15:21:42;19.07;;;17.57;;
5117;SDS011;2578;51.622;7.046;2023-07-31T15:24:08;17.50;;;16.30;;
5117;SDS011;2578;51.622;7.046;2023-07-31T15:26:33;17.37;;;16.20;;
5117;SDS011;2578;51.622;7.046;2023-07-31T15:29:06;17.53;;;16.17;;
5117;SDS011;2578;51.622;7.046;2023-07-31T15:31:38;15.50;;;14.50;;
5117;SDS011;2578;51.622;7.046;2023-07-31T15:34:03;15.20;;;14.20;;
5117;SDS011;2578;51.622;7.046;2023-07-31T15:36:29;15.10;;;14.10;;
5117;SDS011;2578;51.622;7.046;2023-07-31T15:38:55;15.00;;;14.00;;
5117;SDS011;2578;51.622;7.046;2023-07-31T15:41:20;15.63;;;14.63;;
5117;SDS011;2578;51.622;7.046;2023-07-31T15:43:46;16.07;;;14.97;;
5117;SDS011;2578;51.622;7.046;2023-07-31T15:46:13;15.23;;;14.23;;
5117;SDS011;2578;51.622;7.046;2023-07-31T15:48:38;16.13;;;14.93;;
5117;SDS011;2578;51.622;7.046;2023-07-31T15:51:04;15.80;;;14.70;;
5117;SDS011;2578;51.622;7.046;2023-07-31T15:53:30;15.80;;;14.80;;
5117;SDS011;2578;51.622;7.046;2023-07-31T15:55:56;15.50;;;14.50;;
5117;SDS011;2578;51.622;7.046;2023-07-31T15:58:22;16.00;;;14.63;;
5117;SDS011;2578;51.622;7.046;2023-07-31T16:00:48;16.57;;;15.37;;
5117;SDS011;2578;51.622;7.046;2023-07-31T16:03:13;15.93;;;14.83;;
5117;SDS011;2578;51.622;7.046;2023-07-31T16:05:39;16.03;;;14.93;;
5117;SDS011;2578;51.622;7.046;2023-07-31T16:08:06;15.50;;;14.50;;
5117;SDS011;2578;51.622;7.046;2023-07-31T16:10:33;15.43;;;14.43;;
5117;SDS011;2578;51.622;7.046;2023-07-31T16:12:59;16.73;;;15.53;;